sensor_id;sensor_type;location;lat;lon;timestamp;P1;durP1;ratioP1;P2;durP2;ratioP2
65545;SDS011;52177;55.968;37.498;2023-11-19T00:00:02;39.20;;;19.70;;
65545;SDS011;52177;55.968;37.498;2023-11-19T00:00:34;35.75;;;19.85;;
65545;SDS011;52177;55.968;37.498;2023-11-19T00:01:05;33.63;;;19.52;;
65545;SDS011;52177;55.968;37.498;2023-11-19T00:01:36;42.85;;;21.17;;
65545;SDS011;52177;55.968;37.498;2023-11-19T00:02:06;39.30;;;19.48;;
65545;SDS011;52177;55.968;37.498;2023-11-19T00:02:38;37.15;;;20.02;;
65545;SDS011;52177;55.968;37.498;2023-11-19T00:03:09;34.53;;;19.27;;
65545;SDS011;52177;55.968;37.498;2023-11-19T00:03:41;34.88;;;21.20;;
65545;SDS011;52177;55.968;37.498;2023-11-19T00:04:11;35.40;;;21.05;;
65545;SDS011;52177;55.968;37.498;2023-11-19T00:04:42;35.78;;;21.25;;
65545;SDS011;52177;55.968;37.498;2023-11-19T00:05:12;39.45;;;20.98;;
65545;SDS011;52177;55.968;37.498;2023-11-19T00:05:43;46.00;;;22.05;;
65545;SDS011;52177;55.968;37.498;2023-11-19T00:06:18;40.47;;;20.17;;
65545;SDS011;52177;55.968;37.498;2023-11-19T00:06:48;41.95;;;20.73;;
65545;SDS011;52177;55.968;37.498;2023-11-19T00:07:19;37.72;;;20.35;;
65545;SDS011;52177;55.968;37.498;2023-11-19T00:07:50;38.53;;;20.27;;
65545;SDS011;52177;55.968;37.498;2023-11-19T00:08:20;39.10;;;20.42;;
65545;SDS011;52177;55.968;37.498;2023-11-19T00:08:51;38.95;;;20.17;;
65545;SDS011;52177;55.968;37.498;2023-11-19T00:09:21;35.67;;;21.27;;
65545;SDS011;52177;55.968;37.498;2023-11-19T00:09:52;38.03;;;19.90;;
65545;SDS011;52177;55.968;37.498;2023-11-19T00:10:25;33.25;;;19.45;;
65545;SDS011;52177;55.968;37.498;2023-11-19T00:10:55;37.95;;;19.67;;
65545;SDS011;52177;55.968;37.498;2023-11-19T00:11:26;38.50;;;19.77;;
65545;SDS011;52177;55.968;37.498;2023-11-19T00:11:56;38.47;;;19.85;;
65545;SDS011;52177;55.968;37.498;2023-11-19T00:12:26;31.63;;;18.58;;
65545;SDS011;52177;55.968;37.498;2023-11-19T00:12:57;34.97;;;19.27;;
65545;SDS011;52177;55.968;37.498;2023-11-19T00:13:27;37.53;;;20.50;;
65545;SDS011;52177;55.968;37.498;2023-11-19T00:13:58;38.75;;;19.85;;
65545;SDS011;52177;55.968;37.498;2023-11-19T00:14:28;44.05;;;20.17;;
65545;SDS011;52177;55.968;37.498;2023-11-19T00:14:59;38.33;;;20.75;;
65545;SDS011;52177;55.968;37.498;2023-11-19T00:15:30;40.78;;;19.23;;
65545;SDS011;52177;55.968;37.498;2023-11-19T00:16:00;34.15;;;19.67;;
65545;SDS011;52177;55.968;37.498;2023-11-19T00:16:34;34.80;;;19.90;;
65545;SDS011;52177;55.968;37.498;2023-11-19T00:17:04;35.90;;;20.63;;
65545;SDS011;52177;55.968;37.498;2023-11-19T00:17:35;40.67;;;20.55;;
65545;SDS011;52177;55.968;37.498;2023-11-19T00:18:05;34.40;;;20.38;;
65545;SDS011;52177;55.968;37.498;2023-11-19T00:18:36;34.95;;;19.67;;
65545;SDS011;52177;55.968;37.498;2023-11-19T00:19:06;36.65;;;20.40;;
65545;SDS011;52177;55.968;37.498;2023-11-19T00:19:38;35.80;;;19.77;;
65545;SDS011;52177;55.968;37.498;2023-11-19T00:20:09;40.85;;;20.92;;
65545;SDS011;52177;55.968;37.498;2023-11-19T00:20:40;45.83;;;20.15;;
65545;SDS011;52177;55.968;37.498;2023-11-19T00:21:10;37.40;;;19.45;;
65545;SDS011;52177;55.968;37.498;2023-11-19T00:21:41;35.88;;;20.70;;
65545;SDS011;52177;55.968;37.498;2023-11-19T00:22:11;42.70;;;19.95;;
65545;SDS011;52177;55.968;37.498;2023-11-19T00:22:42;35.53;;;20.20;;
65545;SDS011;52177;55.968;37.498;2023-11-19T00:23:12;36.75;;;19.30;;
65545;SDS011;52177;55.968;37.498;2023-11-19T00:23:43;38.22;;;20.67;;
65545;SDS011;52177;55.968;37.498;2023-11-19T00:24:13;35.30;;;19.83;;
65545;SDS011;52177;55.968;37.498;2023-11-19T00:24:46;37.15;;;19.80;;
65545;SDS011;52177;55.968;37.498;2023-11-19T00:25:17;34.17;;;19.33;;
65545;SDS011;52177;55.968;37.498;2023-11-19T00:25:48;39.85;;;20.23;;
65545;SDS011;52177;55.968;37.498;2023-11-19T00:26:19;34.88;;;20.15;;
65545;SDS011;52177;55.968;37.498;2023-11-19T00:26:50;32.42;;;18.77;;
65545;SDS011;52177;55.968;37.498;2023-11-19T00:27:20;34.35;;;19.88;;
65545;SDS011;52177;55.968;37.498;2023-11-19T00:27:51;33.38;;;18.77;;
65545;SDS011;52177;55.968;37.498;2023-11-19T00:28:23;43.50;;;18.38;;
65545;SDS011;52177;55.968;37.498;2023-11-19T00:28:54;31.70;;;19.00;;
65545;SDS011;52177;55.968;37.498;2023-11-19T00:29:26;31.77;;;19.35;;
65545;SDS011;52177;55.968;37.498;2023-11-19T00:29:56;37.28;;;18.63;;
65545;SDS011;52177;55.968;37.498;2023-11-19T00:30:27;36.55;;;19.83;;
65545;SDS011;52177;55.968;37.498;2023-11-19T00:30:57;37.58;;;19.55;;
65545;SDS011;52177;55.968;37.498;2023-11-19T00:31:28;36.15;;;20.17;;
65545;SDS011;52177;55.968;37.498;2023-11-19T00:31:58;36.85;;;19.75;;
65545;SDS011;52177;55.968;37.498;2023-11-19T00:32:28;34.80;;;19.40;;
65545;SDS011;52177;55.968;37.498;2023-11-19T00:32:59;31.67;;;19.25;;
65545;SDS011;52177;55.968;37.498;2023-11-19T00:33:30;34.25;;;20.63;;
65545;SDS011;52177;55.968;37.498;2023-11-19T00:34:01;34.92;;;19.52;;
65545;SDS011;52177;55.968;37.498;2023-11-19T00:34:32;35.20;;;18.88;;
65545;SDS011;52177;55.968;37.498;2023-11-19T00:35:03;33.13;;;18.48;;
65545;SDS011;52177;55.968;37.498;2023-11-19T00:35:34;37.70;;;20.38;;
65545;SDS011;52177;55.968;37.498;2023-11-19T00:36:05;35.45;;;18.83;;
65545;SDS011;52177;55.968;37.498;2023-11-19T00:36:36;34.67;;;19.48;;
65545;SDS011;52177;55.968;37.498;2023-11-19T00:37:06;34.92;;;18.75;;
65545;SDS011;52177;55.968;37.498;2023-11-19T00:37:37;35.20;;;19.25;;
65545;SDS011;52177;55.968;37.498;2023-11-19T00:38:07;36.10;;;20.10;;
65545;SDS011;52177;55.968;37.498;2023-11-19T00:38:38;32.80;;;19.40;;
65545;SDS011;52177;55.968;37.498;2023-11-19T00:39:08;34.97;;;19.08;;
65545;SDS011;52177;55.968;37.498;2023-11-19T00:39:39;37.17;;;19.77;;
65545;SDS011;52177;55.968;37.498;2023-11-19T00:40:09;35.15;;;19.52;;
65545;SDS011;52177;55.968;37.498;2023-11-19T00:40:40;37.42;;;18.58;;
65545;SDS011;52177;55.968;37.498;2023-11-19T00:41:11;33.30;;;18.77;;
65545;SDS011;52177;55.968;37.498;2023-11-19T00:41:41;34.38;;;19.38;;
65545;SDS011;52177;55.968;37.498;2023-11-19T00:42:12;34.78;;;18.58;;
65545;SDS011;52177;55.968;37.498;2023-11-19T00:42:42;34.03;;;18.95;;
65545;SDS011;52177;55.968;37.498;2023-11-19T00:43:13;34.33;;;19.30;;
65545;SDS011;52177;55.968;37.498;2023-11-19T00:43:43;35.53;;;18.38;;
65545;SDS011;52177;55.968;37.498;2023-11-19T00:44:14;38.75;;;19.40;;
65545;SDS011;52177;55.968;37.498;2023-11-19T00:44:45;31.70;;;17.50;;
65545;SDS011;52177;55.968;37.498;2023-11-19T00:45:15;35.42;;;18.88;;
65545;SDS011;52177;55.968;37.498;2023-11-19T00:45:46;39.35;;;19.30;;
65545;SDS011;52177;55.968;37.498;2023-11-19T00:46:17;33.95;;;18.95;;
65545;SDS011;52177;55.968;37.498;2023-11-19T00:46:47;32.35;;;18.48;;
65545;SDS011;52177;55.968;37.498;2023-11-19T00:47:18;39.80;;;18.92;;
65545;SDS011;52177;55.968;37.498;2023-11-19T00:47:50;34.30;;;18.05;;
65545;SDS011;52177;55.968;37.498;2023-11-19T00:48:20;31.35;;;18.40;;
65545;SDS011;52177;55.968;37.498;2023-11-19T00:48:51;37.67;;;19.08;;
65545;SDS011;52177;55.968;37.498;2023-11-19T00:49:21;37.83;;;20.52;;
65545;SDS011;52177;55.968;37.498;2023-11-19T00:49:52;37.83;;;20.27;;
65545;SDS011;52177;55.968;37.498;2023-11-19T00:50:22;35.75;;;19.42;;
65545;SDS011;52177;55.968;37.498;2023-11-19T00:50:53;33.67;;;18.85;;
65545;SDS011;52177;55.968;37.498;2023-11-19T00:51:23;42.67;;;22.67;;
65545;SDS011;52177;55.968;37.498;2023-11-19T00:51:54;38.30;;;19.55;;
65545;SDS011;52177;55.968;37.498;2023-11-19T00:52:24;35.08;;;19.50;;
65545;SDS011;52177;55.968;37.498;2023-11-19T00:52:54;34.80;;;19.35;;
65545;SDS011;52177;55.968;37.498;2023-11-19T00:53:25;37.47;;;18.92;;
65545;SDS011;52177;55.968;37.498;2023-11-19T00:53:55;34.75;;;18.98;;
65545;SDS011;52177;55.968;37.498;2023-11-19T00:54:26;45.35;;;20.02;;
65545;SDS011;52177;55.968;37.498;2023-11-19T00:54:56;34.28;;;19.75;;
65545;SDS011;52177;55.968;37.498;2023-11-19T00:55:27;30.60;;;18.08;;
65545;SDS011;52177;55.968;37.498;2023-11-19T00:55:57;32.42;;;18.65;;
65545;SDS011;52177;55.968;37.498;2023-11-19T00:56:28;35.40;;;18.35;;
65545;SDS011;52177;55.968;37.498;2023-11-19T00:56:58;30.02;;;17.92;;
65545;SDS011;52177;55.968;37.498;2023-11-19T00:57:29;34.03;;;19.00;;
65545;SDS011;52177;55.968;37.498;2023-11-19T00:58:00;39.53;;;18.10;;
65545;SDS011;52177;55.968;37.498;2023-11-19T00:58:30;36.03;;;18.38;;
65545;SDS011;52177;55.968;37.498;2023-11-19T00:59:02;39.17;;;18.20;;
65545;SDS011;52177;55.968;37.498;2023-11-19T00:59:32;30.85;;;17.55;;
65545;SDS011;52177;55.968;37.498;2023-11-19T01:00:03;28.90;;;16.88;;
65545;SDS011;52177;55.968;37.498;2023-11-19T01:00:55;30.75;;;17.40;;
65545;SDS011;52177;55.968;37.498;2023-11-19T01:01:27;35.38;;;17.38;;
65545;SDS011;52177;55.968;37.498;2023-11-19T01:01:57;36.05;;;17.55;;
65545;SDS011;52177;55.968;37.498;2023-11-19T01:02:33;41.53;;;17.88;;
65545;SDS011;52177;55.968;37.498;2023-11-19T01:03:04;34.10;;;20.02;;
65545;SDS011;52177;55.968;37.498;2023-11-19T01:03:37;37.35;;;19.83;;
65545;SDS011;52177;55.968;37.498;2023-11-19T01:04:07;34.95;;;19.75;;
65545;SDS011;52177;55.968;37.498;2023-11-19T01:04:38;35.60;;;19.58;;
65545;SDS011;52177;55.968;37.498;2023-11-19T01:05:09;34.47;;;19.90;;
65545;SDS011;52177;55.968;37.498;2023-11-19T01:05:39;39.08;;;20.13;;
65545;SDS011;52177;55.968;37.498;2023-11-19T01:06:10;39.70;;;18.60;;
65545;SDS011;52177;55.968;37.498;2023-11-19T01:06:40;38.80;;;20.13;;
65545;SDS011;52177;55.968;37.498;2023-11-19T01:07:12;35.53;;;19.20;;
65545;SDS011;52177;55.968;37.498;2023-11-19T01:07:42;29.17;;;18.70;;
65545;SDS011;52177;55.968;37.498;2023-11-19T01:08:13;32.22;;;17.98;;
65545;SDS011;52177;55.968;37.498;2023-11-19T01:08:44;32.70;;;18.83;;
65545;SDS011;52177;55.968;37.498;2023-11-19T01:09:15;30.35;;;17.38;;
65545;SDS011;52177;55.968;37.498;2023-11-19T01:09:45;34.05;;;20.02;;
65545;SDS011;52177;55.968;37.498;2023-11-19T01:10:16;30.25;;;18.15;;
65545;SDS011;52177;55.968;37.498;2023-11-19T01:10:46;35.50;;;18.48;;
65545;SDS011;52177;55.968;37.498;2023-11-19T01:11:20;31.17;;;18.55;;
65545;SDS011;52177;55.968;37.498;2023-11-19T01:11:51;31.05;;;18.17;;
65545;SDS011;52177;55.968;37.498;2023-11-19T01:12:22;39.78;;;18.10;;
65545;SDS011;52177;55.968;37.498;2023-11-19T01:12:52;35.78;;;18.80;;
65545;SDS011;52177;55.968;37.498;2023-11-19T01:13:23;36.20;;;18.30;;
65545;SDS011;52177;55.968;37.498;2023-11-19T01:13:54;34.22;;;18.33;;
65545;SDS011;52177;55.968;37.498;2023-11-19T01:14:25;41.53;;;19.17;;
65545;SDS011;52177;55.968;37.498;2023-11-19T01:14:55;35.55;;;19.00;;
65545;SDS011;52177;55.968;37.498;2023-11-19T01:15:26;31.88;;;17.45;;
65545;SDS011;52177;55.968;37.498;2023-11-19T01:15:57;30.17;;;17.23;;
65545;SDS011;52177;55.968;37.498;2023-11-19T01:16:27;25.60;;;16.85;;
65545;SDS011;52177;55.968;37.498;2023-11-19T01:16:58;34.30;;;18.60;;
65545;SDS011;52177;55.968;37.498;2023-11-19T01:17:28;29.30;;;17.85;;
65545;SDS011;52177;55.968;37.498;2023-11-19T01:18:01;36.17;;;17.17;;
65545;SDS011;52177;55.968;37.498;2023-11-19T01:18:34;31.95;;;16.88;;
65545;SDS011;52177;55.968;37.498;2023-11-19T01:19:05;26.58;;;17.20;;
65545;SDS011;52177;55.968;37.498;2023-11-19T01:19:36;30.58;;;17.98;;
65545;SDS011;52177;55.968;37.498;2023-11-19T01:20:06;32.05;;;17.05;;
65545;SDS011;52177;55.968;37.498;2023-11-19T01:20:37;33.17;;;17.50;;
65545;SDS011;52177;55.968;37.498;2023-11-19T01:21:08;32.53;;;17.92;;
65545;SDS011;52177;55.968;37.498;2023-11-19T01:21:38;28.38;;;16.92;;
65545;SDS011;52177;55.968;37.498;2023-11-19T01:22:09;33.17;;;17.15;;
65545;SDS011;52177;55.968;37.498;2023-11-19T01:22:39;33.30;;;18.33;;
65545;SDS011;52177;55.968;37.498;2023-11-19T01:23:10;30.83;;;17.08;;
65545;SDS011;52177;55.968;37.498;2023-11-19T01:23:41;33.80;;;18.20;;
65545;SDS011;52177;55.968;37.498;2023-11-19T01:24:15;30.60;;;17.27;;
65545;SDS011;52177;55.968;37.498;2023-11-19T01:24:45;29.65;;;16.80;;
65545;SDS011;52177;55.968;37.498;2023-11-19T01:25:16;30.02;;;17.60;;
65545;SDS011;52177;55.968;37.498;2023-11-19T01:25:46;32.65;;;18.20;;
65545;SDS011;52177;55.968;37.498;2023-11-19T01:26:18;31.33;;;17.63;;
65545;SDS011;52177;55.968;37.498;2023-11-19T01:26:48;28.38;;;17.13;;
65545;SDS011;52177;55.968;37.498;2023-11-19T01:27:19;27.48;;;17.42;;
65545;SDS011;52177;55.968;37.498;2023-11-19T01:27:49;31.40;;;17.15;;
65545;SDS011;52177;55.968;37.498;2023-11-19T01:28:20;30.13;;;17.30;;
65545;SDS011;52177;55.968;37.498;2023-11-19T01:28:50;28.60;;;16.15;;
65545;SDS011;52177;55.968;37.498;2023-11-19T01:29:22;32.72;;;17.75;;
65545;SDS011;52177;55.968;37.498;2023-11-19T01:29:53;34.70;;;17.20;;
65545;SDS011;52177;55.968;37.498;2023-11-19T01:30:25;28.15;;;16.83;;
65545;SDS011;52177;55.968;37.498;2023-11-19T01:30:55;30.00;;;17.42;;
65545;SDS011;52177;55.968;37.498;2023-11-19T01:31:26;26.50;;;15.57;;
65545;SDS011;52177;55.968;37.498;2023-11-19T01:31:56;34.92;;;16.17;;
65545;SDS011;52177;55.968;37.498;2023-11-19T01:32:27;35.28;;;17.00;;
65545;SDS011;52177;55.968;37.498;2023-11-19T01:32:57;31.63;;;17.13;;
65545;SDS011;52177;55.968;37.498;2023-11-19T01:33:28;29.58;;;16.73;;
65545;SDS011;52177;55.968;37.498;2023-11-19T01:33:58;31.42;;;16.38;;
65545;SDS011;52177;55.968;37.498;2023-11-19T01:34:29;26.90;;;16.20;;
65545;SDS011;52177;55.968;37.498;2023-11-19T01:34:59;32.58;;;16.10;;
65545;SDS011;52177;55.968;37.498;2023-11-19T01:35:30;30.38;;;18.25;;
65545;SDS011;52177;55.968;37.498;2023-11-19T01:36:01;30.65;;;16.65;;
65545;SDS011;52177;55.968;37.498;2023-11-19T01:36:31;30.10;;;16.70;;
65545;SDS011;52177;55.968;37.498;2023-11-19T01:37:02;29.83;;;16.83;;
65545;SDS011;52177;55.968;37.498;2023-11-19T01:37:33;34.28;;;17.92;;
65545;SDS011;52177;55.968;37.498;2023-11-19T01:38:04;33.25;;;17.75;;
65545;SDS011;52177;55.968;37.498;2023-11-19T01:38:36;27.50;;;16.67;;
65545;SDS011;52177;55.968;37.498;2023-11-19T01:39:06;35.22;;;16.50;;
65545;SDS011;52177;55.968;37.498;2023-11-19T01:39:37;28.35;;;17.13;;
65545;SDS011;52177;55.968;37.498;2023-11-19T01:40:07;26.52;;;15.63;;
65545;SDS011;52177;55.968;37.498;2023-11-19T01:40:38;29.38;;;16.27;;
65545;SDS011;52177;55.968;37.498;2023-11-19T01:41:08;31.10;;;16.58;;
65545;SDS011;52177;55.968;37.498;2023-11-19T01:41:39;28.13;;;16.58;;
65545;SDS011;52177;55.968;37.498;2023-11-19T01:42:09;26.85;;;16.05;;
65545;SDS011;52177;55.968;37.498;2023-11-19T01:42:41;27.95;;;16.00;;
65545;SDS011;52177;55.968;37.498;2023-11-19T01:43:12;29.50;;;17.23;;
65545;SDS011;52177;55.968;37.498;2023-11-19T01:44:00;26.25;;;14.80;;
65545;SDS011;52177;55.968;37.498;2023-11-19T01:44:31;27.08;;;15.65;;
65545;SDS011;52177;55.968;37.498;2023-11-19T01:45:02;29.80;;;17.02;;
65545;SDS011;52177;55.968;37.498;2023-11-19T01:45:33;29.45;;;17.63;;
65545;SDS011;52177;55.968;37.498;2023-11-19T01:46:04;29.48;;;16.73;;
65545;SDS011;52177;55.968;37.498;2023-11-19T01:46:36;31.80;;;16.88;;
65545;SDS011;52177;55.968;37.498;2023-11-19T01:47:07;32.17;;;18.10;;
65545;SDS011;52177;55.968;37.498;2023-11-19T01:47:38;27.30;;;16.73;;
65545;SDS011;52177;55.968;37.498;2023-11-19T01:48:10;31.45;;;16.83;;
65545;SDS011;52177;55.968;37.498;2023-11-19T01:48:44;29.90;;;17.02;;
65545;SDS011;52177;55.968;37.498;2023-11-19T01:49:16;28.08;;;16.98;;
65545;SDS011;52177;55.968;37.498;2023-11-19T01:49:47;30.27;;;17.17;;
65545;SDS011;52177;55.968;37.498;2023-11-19T01:50:18;28.30;;;17.30;;
65545;SDS011;52177;55.968;37.498;2023-11-19T01:50:49;33.63;;;17.95;;
65545;SDS011;52177;55.968;37.498;2023-11-19T01:51:22;33.20;;;17.92;;
65545;SDS011;52177;55.968;37.498;2023-11-19T01:51:52;31.83;;;17.00;;
65545;SDS011;52177;55.968;37.498;2023-11-19T01:52:23;27.80;;;16.08;;
65545;SDS011;52177;55.968;37.498;2023-11-19T01:52:55;36.83;;;17.80;;
65545;SDS011;52177;55.968;37.498;2023-11-19T01:53:30;27.63;;;15.95;;
65545;SDS011;52177;55.968;37.498;2023-11-19T01:54:01;29.17;;;17.40;;
65545;SDS011;52177;55.968;37.498;2023-11-19T01:54:32;29.70;;;17.27;;
65545;SDS011;52177;55.968;37.498;2023-11-19T01:55:03;32.90;;;16.88;;
65545;SDS011;52177;55.968;37.498;2023-11-19T01:55:34;32.65;;;17.77;;
65545;SDS011;52177;55.968;37.498;2023-11-19T01:56:05;32.20;;;17.23;;
65545;SDS011;52177;55.968;37.498;2023-11-19T01:56:41;33.80;;;17.83;;
65545;SDS011;52177;55.968;37.498;2023-11-19T01:57:12;32.65;;;17.73;;
65545;SDS011;52177;55.968;37.498;2023-11-19T01:57:43;30.60;;;17.38;;
65545;SDS011;52177;55.968;37.498;2023-11-19T01:58:14;34.65;;;18.65;;
65545;SDS011;52177;55.968;37.498;2023-11-19T01:58:45;29.27;;;17.45;;
65545;SDS011;52177;55.968;37.498;2023-11-19T01:59:18;36.60;;;18.02;;
65545;SDS011;52177;55.968;37.498;2023-11-19T01:59:51;36.13;;;17.35;;
65545;SDS011;52177;55.968;37.498;2023-11-19T02:00:23;33.60;;;19.15;;
65545;SDS011;52177;55.968;37.498;2023-11-19T02:00:54;38.60;;;19.08;;
65545;SDS011;52177;55.968;37.498;2023-11-19T02:01:24;32.85;;;18.65;;
65545;SDS011;52177;55.968;37.498;2023-11-19T02:01:55;33.38;;;18.95;;
65545;SDS011;52177;55.968;37.498;2023-11-19T02:02:27;31.55;;;18.27;;
65545;SDS011;52177;55.968;37.498;2023-11-19T02:02:57;44.65;;;18.27;;
65545;SDS011;52177;55.968;37.498;2023-11-19T02:03:28;31.85;;;18.40;;
65545;SDS011;52177;55.968;37.498;2023-11-19T02:03:59;33.65;;;18.10;;
65545;SDS011;52177;55.968;37.498;2023-11-19T02:04:29;33.63;;;18.10;;
65545;SDS011;52177;55.968;37.498;2023-11-19T02:05:00;28.73;;;16.70;;
65545;SDS011;52177;55.968;37.498;2023-11-19T02:05:30;31.35;;;18.25;;
65545;SDS011;52177;55.968;37.498;2023-11-19T02:06:02;29.40;;;17.58;;
65545;SDS011;52177;55.968;37.498;2023-11-19T02:06:33;34.13;;;18.98;;
65545;SDS011;52177;55.968;37.498;2023-11-19T02:07:07;35.80;;;19.80;;
65545;SDS011;52177;55.968;37.498;2023-11-19T02:07:38;36.75;;;20.10;;
65545;SDS011;52177;55.968;37.498;2023-11-19T02:08:09;33.95;;;20.02;;
65545;SDS011;52177;55.968;37.498;2023-11-19T02:08:40;33.53;;;19.50;;
65545;SDS011;52177;55.968;37.498;2023-11-19T02:09:10;35.75;;;19.25;;
65545;SDS011;52177;55.968;37.498;2023-11-19T02:09:43;37.20;;;19.88;;
65545;SDS011;52177;55.968;37.498;2023-11-19T02:10:14;34.25;;;19.35;;
65545;SDS011;52177;55.968;37.498;2023-11-19T02:10:46;34.33;;;18.00;;
65545;SDS011;52177;55.968;37.498;2023-11-19T02:11:17;34.38;;;18.65;;
65545;SDS011;52177;55.968;37.498;2023-11-19T02:11:47;29.45;;;18.10;;
65545;SDS011;52177;55.968;37.498;2023-11-19T02:12:21;31.67;;;18.80;;
65545;SDS011;52177;55.968;37.498;2023-11-19T02:12:51;32.15;;;19.10;;
65545;SDS011;52177;55.968;37.498;2023-11-19T02:13:22;39.40;;;19.98;;
65545;SDS011;52177;55.968;37.498;2023-11-19T02:13:54;34.08;;;19.33;;
65545;SDS011;52177;55.968;37.498;2023-11-19T02:14:25;38.15;;;18.88;;
65545;SDS011;52177;55.968;37.498;2023-11-19T02:14:56;34.10;;;18.92;;
65545;SDS011;52177;55.968;37.498;2023-11-19T02:15:29;34.80;;;18.20;;
65545;SDS011;52177;55.968;37.498;2023-11-19T02:15:59;35.13;;;18.25;;
65545;SDS011;52177;55.968;37.498;2023-11-19T02:16:30;38.28;;;19.10;;
65545;SDS011;52177;55.968;37.498;2023-11-19T02:17:00;31.73;;;18.60;;
65545;SDS011;52177;55.968;37.498;2023-11-19T02:17:31;38.83;;;19.05;;
65545;SDS011;52177;55.968;37.498;2023-11-19T02:18:17;32.63;;;19.15;;
65545;SDS011;52177;55.968;37.498;2023-11-19T02:18:49;35.33;;;17.23;;
65545;SDS011;52177;55.968;37.498;2023-11-19T02:19:19;34.78;;;18.95;;
65545;SDS011;52177;55.968;37.498;2023-11-19T02:19:50;35.60;;;18.23;;
65545;SDS011;52177;55.968;37.498;2023-11-19T02:20:20;35.85;;;18.58;;
65545;SDS011;52177;55.968;37.498;2023-11-19T02:20:51;35.80;;;18.60;;
65545;SDS011;52177;55.968;37.498;2023-11-19T02:21:22;34.90;;;18.58;;
65545;SDS011;52177;55.968;37.498;2023-11-19T02:21:52;37.55;;;19.88;;
65545;SDS011;52177;55.968;37.498;2023-11-19T02:22:23;33.92;;;18.65;;
65545;SDS011;52177;55.968;37.498;2023-11-19T02:22:53;32.75;;;19.33;;
65545;SDS011;52177;55.968;37.498;2023-11-19T02:23:25;36.08;;;20.25;;
65545;SDS011;52177;55.968;37.498;2023-11-19T02:23:57;33.38;;;19.77;;
65545;SDS011;52177;55.968;37.498;2023-11-19T02:24:27;37.42;;;20.10;;
65545;SDS011;52177;55.968;37.498;2023-11-19T02:25:04;31.67;;;19.63;;
65545;SDS011;52177;55.968;37.498;2023-11-19T02:25:36;34.33;;;19.30;;
65545;SDS011;52177;55.968;37.498;2023-11-19T02:26:46;37.17;;;19.70;;
65545;SDS011;52177;55.968;37.498;2023-11-19T02:27:42;39.13;;;19.48;;
65545;SDS011;52177;55.968;37.498;2023-11-19T02:28:17;38.75;;;18.42;;
65545;SDS011;52177;55.968;37.498;2023-11-19T02:28:48;35.83;;;20.17;;
65545;SDS011;52177;55.968;37.498;2023-11-19T02:29:18;32.78;;;19.85;;
65545;SDS011;52177;55.968;37.498;2023-11-19T02:29:49;30.05;;;19.08;;
65545;SDS011;52177;55.968;37.498;2023-11-19T02:30:19;38.50;;;19.75;;
65545;SDS011;52177;55.968;37.498;2023-11-19T02:30:50;37.00;;;19.95;;
65545;SDS011;52177;55.968;37.498;2023-11-19T02:31:20;35.88;;;20.35;;
65545;SDS011;52177;55.968;37.498;2023-11-19T02:31:53;36.33;;;20.52;;
65545;SDS011;52177;55.968;37.498;2023-11-19T02:32:27;32.92;;;19.48;;
65545;SDS011;52177;55.968;37.498;2023-11-19T02:33:01;37.75;;;20.25;;
65545;SDS011;52177;55.968;37.498;2023-11-19T02:33:35;37.90;;;19.33;;
65545;SDS011;52177;55.968;37.498;2023-11-19T02:34:07;34.60;;;19.85;;
65545;SDS011;52177;55.968;37.498;2023-11-19T02:34:37;36.28;;;20.13;;
65545;SDS011;52177;55.968;37.498;2023-11-19T02:35:08;33.97;;;19.55;;
65545;SDS011;52177;55.968;37.498;2023-11-19T02:35:38;35.60;;;19.63;;
65545;SDS011;52177;55.968;37.498;2023-11-19T02:36:10;35.65;;;20.60;;
65545;SDS011;52177;55.968;37.498;2023-11-19T02:36:41;35.22;;;19.02;;
65545;SDS011;52177;55.968;37.498;2023-11-19T02:37:11;37.35;;;19.65;;
65545;SDS011;52177;55.968;37.498;2023-11-19T02:37:42;33.65;;;19.83;;
65545;SDS011;52177;55.968;37.498;2023-11-19T02:38:12;37.13;;;20.08;;
65545;SDS011;52177;55.968;37.498;2023-11-19T02:38:44;39.63;;;21.67;;
65545;SDS011;52177;55.968;37.498;2023-11-19T02:39:15;35.25;;;20.27;;
65545;SDS011;52177;55.968;37.498;2023-11-19T02:39:51;30.95;;;19.27;;
65545;SDS011;52177;55.968;37.498;2023-11-19T02:40:21;39.30;;;20.23;;
65545;SDS011;52177;55.968;37.498;2023-11-19T02:40:54;33.92;;;19.30;;
65545;SDS011;52177;55.968;37.498;2023-11-19T02:41:24;40.67;;;20.20;;
65545;SDS011;52177;55.968;37.498;2023-11-19T02:41:55;32.97;;;20.20;;
65545;SDS011;52177;55.968;37.498;2023-11-19T02:42:25;31.73;;;19.52;;
65545;SDS011;52177;55.968;37.498;2023-11-19T02:42:56;41.88;;;20.20;;
65545;SDS011;52177;55.968;37.498;2023-11-19T02:43:26;32.78;;;20.13;;
65545;SDS011;52177;55.968;37.498;2023-11-19T02:43:57;34.33;;;19.88;;
65545;SDS011;52177;55.968;37.498;2023-11-19T02:44:28;37.03;;;20.00;;
65545;SDS011;52177;55.968;37.498;2023-11-19T02:45:00;33.97;;;19.95;;
65545;SDS011;52177;55.968;37.498;2023-11-19T02:45:30;39.25;;;20.42;;
65545;SDS011;52177;55.968;37.498;2023-11-19T02:46:01;38.08;;;20.10;;
65545;SDS011;52177;55.968;37.498;2023-11-19T02:46:33;33.10;;;18.77;;
65545;SDS011;52177;55.968;37.498;2023-11-19T02:47:05;43.35;;;20.75;;
65545;SDS011;52177;55.968;37.498;2023-11-19T02:47:38;39.05;;;20.58;;
65545;SDS011;52177;55.968;37.498;2023-11-19T02:48:08;32.33;;;19.52;;
65545;SDS011;52177;55.968;37.498;2023-11-19T02:48:39;42.25;;;20.33;;
65545;SDS011;52177;55.968;37.498;2023-11-19T02:49:10;35.83;;;20.23;;
65545;SDS011;52177;55.968;37.498;2023-11-19T02:49:40;34.28;;;19.67;;
65545;SDS011;52177;55.968;37.498;2023-11-19T02:50:11;35.83;;;20.00;;
65545;SDS011;52177;55.968;37.498;2023-11-19T02:50:45;38.60;;;19.67;;
65545;SDS011;52177;55.968;37.498;2023-11-19T02:51:16;35.88;;;20.40;;
65545;SDS011;52177;55.968;37.498;2023-11-19T02:51:48;44.20;;;21.23;;
65545;SDS011;52177;55.968;37.498;2023-11-19T02:52:19;38.38;;;19.02;;
65545;SDS011;52177;55.968;37.498;2023-11-19T02:52:49;34.03;;;20.73;;
65545;SDS011;52177;55.968;37.498;2023-11-19T02:53:21;30.65;;;18.75;;
65545;SDS011;52177;55.968;37.498;2023-11-19T02:53:52;37.28;;;18.83;;
65545;SDS011;52177;55.968;37.498;2023-11-19T02:54:22;32.13;;;19.77;;
65545;SDS011;52177;55.968;37.498;2023-11-19T02:54:57;37.67;;;20.05;;
65545;SDS011;52177;55.968;37.498;2023-11-19T02:55:27;37.53;;;20.98;;
65545;SDS011;52177;55.968;37.498;2023-11-19T02:56:00;36.08;;;18.92;;
65545;SDS011;52177;55.968;37.498;2023-11-19T02:56:32;33.42;;;19.67;;
65545;SDS011;52177;55.968;37.498;2023-11-19T02:57:07;33.03;;;19.05;;
65545;SDS011;52177;55.968;37.498;2023-11-19T02:57:39;41.33;;;19.98;;
65545;SDS011;52177;55.968;37.498;2023-11-19T02:58:18;32.85;;;18.83;;
65545;SDS011;52177;55.968;37.498;2023-11-19T02:58:53;37.20;;;19.73;;
65545;SDS011;52177;55.968;37.498;2023-11-19T02:59:24;36.75;;;19.70;;
65545;SDS011;52177;55.968;37.498;2023-11-19T02:59:57;39.67;;;19.52;;
65545;SDS011;52177;55.968;37.498;2023-11-19T03:00:28;36.80;;;20.15;;
65545;SDS011;52177;55.968;37.498;2023-11-19T03:01:05;34.08;;;19.45;;